Terminal Aerodrome Forecast
Issued by NWS North Platte, NE

Home | Current Version | Previous Version | Text Only | Print | Product List | Glossary On
Versions: 1 2 3 4 5 6 7 8 9 10 11 12 13 14 15 16
000
FTUS43 KLBF 301100
TAFLBF
TAF
KLBF 301133Z 3012/0112 23009KT P6SM BKN050
     FM301500 23014G25KT P6SM SCT250
     FM302200 23010G20KT P6SM SCT250
     FM010100 19006KT P6SM BKN200
     FM010700 VRB06KT P6SM BKN120=

USA.gov is the U.S. government's official web portal to all federal, state and local government web resources and services.